Time;durP1;ratioP1;P1;durP2;ratioP2;P2;SDS_P1;SDS_P2;PMS_P1;PMS_P2;Temp;Humidity;BMP_temperature;BMP_pressure;BME280_temperature;BME280_humidity;BME280_pressure;Samples;Min_cycle;Max_cycle;Signal;HPM_P1;HPM_P2
2023/06/23 00:02:20;;;;;;;3.40;3.20;;;20.40;99.90;;;;;;6151980;23;20452;-78
2023/06/23 00:04:47;;;;;;;3.90;3.60;;;20.40;99.90;;;;;;6158007;23;20470;-78
2023/06/23 00:07:14;;;;;;;3.63;3.33;;;20.40;99.90;;;;;;6153583;23;20897;-78
2023/06/23 00:09:43;;;;;;;3.67;3.47;;;20.40;99.90;;;;;;6163311;23;20466;-78
2023/06/23 00:12:12;;;;;;;3.70;3.50;;;20.30;99.90;;;;;;6163343;23;20455;-79
2023/06/23 00:14:39;;;;;;;4.10;3.80;;;20.40;99.90;;;;;;6162874;23;20444;-78
2023/06/23 00:17:07;;;;;;;3.47;3.27;;;20.30;99.90;;;;;;6160098;23;20434;-78
2023/06/23 00:19:34;;;;;;;4.10;3.80;;;20.30;99.90;;;;;;6161135;23;20942;-78
2023/06/23 00:22:02;;;;;;;3.50;3.30;;;20.30;99.90;;;;;;6155878;23;20499;-78
2023/06/23 00:24:30;;;;;;;3.67;3.47;;;20.30;99.90;;;;;;6161967;23;20988;-78
2023/06/23 00:26:58;;;;;;;3.60;3.40;;;20.30;99.90;;;;;;6161000;23;20430;-78
2023/06/23 00:29:26;;;;;;;3.77;3.47;;;20.30;99.90;;;;;;6154773;23;20434;-78
2023/06/23 00:31:53;;;;;;;3.57;3.37;;;20.30;99.90;;;;;;6160126;23;20438;-78
2023/06/23 00:34:20;;;;;;;4.23;3.30;;;20.30;99.90;;;;;;6161346;23;20486;-78
2023/06/23 00:36:47;;;;;;;3.60;3.30;;;20.20;99.90;;;;;;6162635;23;20582;-78
2023/06/23 00:39:14;;;;;;;3.30;3.10;;;20.20;99.90;;;;;;6151374;23;20450;-79
2023/06/23 00:41:42;;;;;;;3.13;2.93;;;20.20;99.90;;;;;;6157647;23;20529;-78
2023/06/23 00:44:10;;;;;;;3.50;3.20;;;20.20;99.90;;;;;;6158544;23;20491;-78
2023/06/23 00:46:39;;;;;;;3.20;3.00;;;20.20;99.90;;;;;;6159824;23;20527;-78
2023/06/23 00:49:06;;;;;;;3.23;3.03;;;20.20;99.90;;;;;;6159036;23;20440;-78
2023/06/23 00:51:33;;;;;;;3.50;3.00;;;20.20;99.90;;;;;;6159855;23;20430;-79
2023/06/23 00:54:00;;;;;;;3.20;3.00;;;20.20;99.90;;;;;;6161202;23;20478;-78
2023/06/23 00:56:30;;;;;;;3.70;3.40;;;20.30;99.90;;;;;;6152959;23;20440;-78
2023/06/23 00:58:58;;;;;;;3.10;2.90;;;20.20;99.90;;;;;;6160320;23;20434;-78
2023/06/23 01:01:25;;;;;;;3.53;3.33;;;20.10;99.90;;;;;;6159305;23;20438;-78
2023/06/23 01:03:54;;;;;;;3.50;3.20;;;20.10;99.90;;;;;;6158212;23;20458;-78
2023/06/23 01:06:28;;;;;;;3.20;3.00;;;20.10;99.90;;;;;;6156748;23;20441;-78
2023/06/23 01:09:00;;;;;;;3.60;3.30;;;20.10;99.90;;;;;;6158593;23;20438;-78
2023/06/23 01:11:34;;;;;;;4.40;4.10;;;20.10;99.90;;;;;;6158760;23;21049;-78
2023/06/23 01:14:07;;;;;;;4.40;4.10;;;20.00;99.90;;;;;;6151559;23;20801;-78
2023/06/23 01:16:44;;;;;;;4.57;4.10;;;19.80;99.90;;;;;;6157081;23;20424;-78
2023/06/23 01:19:22;;;;;;;4.77;4.47;;;19.70;99.90;;;;;;6160313;23;20440;-78
2023/06/23 01:22:00;;;;;;;4.60;4.30;;;19.60;99.90;;;;;;6157659;23;20492;-78
2023/06/23 01:24:42;;;;;;;5.23;4.73;;;19.40;99.90;;;;;;6166158;23;20467;-78
2023/06/23 01:27:33;;;;;;;5.57;4.80;;;19.30;99.90;;;;;;6159855;23;20445;-78
2023/06/23 01:30:05;;;;;;;4.90;4.60;;;19.10;99.90;;;;;;6154273;23;20440;-78
2023/06/23 01:32:38;;;;;;;4.93;4.53;;;19.00;99.90;;;;;;6150276;23;20509;-78
2023/06/23 01:35:10;;;;;;;5.10;4.70;;;19.00;99.90;;;;;;6158325;23;20795;-78
2023/06/23 01:37:41;;;;;;;4.70;4.30;;;19.00;99.90;;;;;;6157706;23;20543;-78
2023/06/23 01:40:13;;;;;;;5.10;4.80;;;18.90;99.90;;;;;;6159659;23;20435;-78
2023/06/23 01:42:54;;;;;;;5.40;5.00;;;18.80;99.90;;;;;;6154339;23;22063;-78
2023/06/23 01:45:27;;;;;;;5.30;4.80;;;18.70;99.90;;;;;;6157448;23;20472;-79
2023/06/23 01:47:55;;;;;;;5.87;5.20;;;18.70;99.90;;;;;;6142457;23;20431;-78
2023/06/23 01:50:24;;;;;;;5.80;5.30;;;18.70;99.90;;;;;;6154631;23;20439;-79
2023/06/23 01:52:54;;;;;;;6.07;5.53;;;18.70;99.90;;;;;;6156584;23;20522;-79
2023/06/23 01:55:23;;;;;;;6.43;5.83;;;18.60;99.90;;;;;;6156892;23;20436;-78
2023/06/23 01:57:52;;;;;;;5.20;4.90;;;18.60;99.90;;;;;;6150981;23;20436;-80
2023/06/23 02:00:23;;;;;;;5.40;4.97;;;18.50;99.90;;;;;;6156303;23;20442;-80
2023/06/23 02:02:53;;;;;;;5.87;5.27;;;18.40;99.90;;;;;;6151868;23;20466;-79
2023/06/23 02:05:23;;;;;;;6.53;5.50;;;18.40;99.90;;;;;;6149716;23;20555;-79
2023/06/23 02:07:52;;;;;;;5.80;5.23;;;18.30;99.90;;;;;;6158362;23;20433;-79
2023/06/23 02:10:21;;;;;;;4.00;3.70;;;18.30;99.90;;;;;;6157633;23;20435;-79
2023/06/23 02:12:50;;;;;;;4.43;4.07;;;18.30;99.90;;;;;;6160336;23;20455;-79
2023/06/23 02:15:18;;;;;;;4.73;4.40;;;18.20;99.90;;;;;;6155002;23;20531;-79
2023/06/23 02:17:48;;;;;;;4.30;4.00;;;18.20;99.90;;;;;;6158363;23;20428;-79
2023/06/23 02:20:17;;;;;;;3.73;3.30;;;18.10;99.90;;;;;;6158207;23;20480;-79
2023/06/23 02:22:46;;;;;;;4.23;3.93;;;18.30;99.90;;;;;;6160130;23;21156;-79
2023/06/23 02:25:15;;;;;;;5.00;4.70;;;17.90;99.90;;;;;;6163974;23;20464;-79
2023/06/23 02:27:43;;;;;;;5.20;4.80;;;17.90;99.90;;;;;;6161104;23;20459;-79
2023/06/23 02:30:11;;;;;;;4.50;4.20;;;17.80;99.90;;;;;;6168328;23;20799;-79
2023/06/23 02:32:39;;;;;;;5.40;5.00;;;17.80;99.90;;;;;;6167756;23;20454;-77
2023/06/23 02:35:09;;;;;;;5.40;5.00;;;17.70;99.90;;;;;;6165728;23;20444;-79
2023/06/23 02:37:40;;;;;;;5.50;5.13;;;17.70;99.90;;;;;;6169017;23;20760;-79
2023/06/23 02:40:16;;;;;;;6.00;5.60;;;17.70;99.90;;;;;;6158249;23;20447;-79
2023/06/23 02:42:50;;;;;;;6.60;6.10;;;17.70;99.90;;;;;;6170201;23;20992;-79
2023/06/23 02:45:20;;;;;;;6.90;6.40;;;17.70;99.90;;;;;;6172699;23;20482;-79
2023/06/23 02:47:50;;;;;;;6.60;6.10;;;17.60;99.90;;;;;;6165000;23;20510;-79
2023/06/23 02:50:25;;;;;;;7.00;6.50;;;17.80;99.90;;;;;;6165308;23;20965;-79
2023/06/23 02:52:59;;;;;;;7.67;7.07;;;17.60;99.90;;;;;;6170649;23;20447;-79
2023/06/23 02:55:28;;;;;;;7.97;7.37;;;17.60;99.90;;;;;;6165539;23;22072;-79
2023/06/23 02:57:57;;;;;;;8.80;8.20;;;17.60;99.90;;;;;;6158128;23;20948;-79
2023/06/23 03:00:28;;;;;;;9.60;8.90;;;17.60;99.90;;;;;;6171461;23;20432;-79
2023/06/23 03:02:59;;;;;;;9.43;8.73;;;17.60;99.90;;;;;;6169378;23;20466;-79
2023/06/23 03:05:28;;;;;;;10.80;10.00;;;17.60;99.90;;;;;;6167434;23;20547;-79
2023/06/23 03:07:55;;;;;;;11.30;10.30;;;17.60;99.90;;;;;;6163351;23;20439;-79
2023/06/23 03:10:23;;;;;;;11.97;10.97;;;17.60;99.90;;;;;;6165997;23;20514;-79
2023/06/23 03:12:50;;;;;;;11.37;10.53;;;17.70;99.90;;;;;;6164213;23;20460;-79
2023/06/23 03:15:17;;;;;;;11.43;10.53;;;17.70;99.90;;;;;;6160663;23;20446;-79
2023/06/23 03:17:47;;;;;;;11.93;10.93;;;17.70;99.90;;;;;;6171625;23;20969;-79
2023/06/23 03:20:22;;;;;;;13.10;12.00;;;17.70;99.90;;;;;;6167901;23;20787;-79
2023/06/23 03:22:58;;;;;;;12.37;11.40;;;17.80;99.90;;;;;;6162598;23;20460;-79
2023/06/23 03:25:27;;;;;;;13.10;12.10;;;17.80;99.90;;;;;;6163982;23;20467;-79
2023/06/23 03:27:57;;;;;;;11.67;10.77;;;17.80;99.90;;;;;;6166403;23;21000;-79
2023/06/23 03:30:26;;;;;;;12.20;11.30;;;17.80;99.90;;;;;;6167340;23;20432;-79
2023/06/23 03:33:00;;;;;;;11.67;10.77;;;17.90;99.90;;;;;;6152596;23;20971;-79
2023/06/23 03:35:32;;;;;;;13.00;11.87;;;17.90;99.90;;;;;;6165101;23;20431;-80
2023/06/23 03:38:04;;;;;;;12.43;11.43;;;17.90;99.90;;;;;;6170258;23;20459;-79
2023/06/23 03:40:40;;;;;;;13.50;12.40;;;17.90;99.90;;;;;;6168890;23;20669;-79
2023/06/23 03:43:13;;;;;;;11.57;10.67;;;18.00;99.90;;;;;;6166444;23;20583;-79
2023/06/23 03:45:43;;;;;;;12.60;11.50;;;18.00;99.90;;;;;;6166367;23;21140;-79
2023/06/23 03:48:12;;;;;;;12.37;11.27;;;18.10;99.90;;;;;;6158850;23;20438;-79
2023/06/23 03:50:44;;;;;;;13.97;12.83;;;18.00;99.90;;;;;;6166439;23;20476;-79
2023/06/23 03:53:15;;;;;;;11.20;10.30;;;18.10;99.90;;;;;;6168514;23;20531;-79
2023/06/23 03:55:43;;;;;;;12.03;11.13;;;18.10;99.90;;;;;;6170025;23;21023;-79
2023/06/23 03:58:12;;;;;;;11.77;10.80;;;18.10;99.90;;;;;;6165199;23;20428;-79
2023/06/23 04:00:43;;;;;;;12.07;11.17;;;18.40;99.90;;;;;;6162945;23;20431;-79
2023/06/23 04:03:12;;;;;;;12.67;11.70;;;18.20;99.90;;;;;;6166601;23;20514;-79
2023/06/23 04:05:40;;;;;;;14.03;12.93;;;18.30;99.90;;;;;;6156197;23;20517;-79
2023/06/23 04:08:10;;;;;;;13.77;12.67;;;18.30;99.90;;;;;;6160090;23;20514;-79
2023/06/23 04:10:39;;;;;;;13.40;12.40;;;18.40;99.90;;;;;;6163386;23;20462;-74
2023/06/23 04:13:06;;;;;;;12.57;11.63;;;18.30;99.90;;;;;;6153909;23;20502;-74
2023/06/23 04:15:37;;;;;;;12.93;11.90;;;18.40;99.90;;;;;;6163994;23;20524;-69
2023/06/23 04:18:09;;;;;;;14.50;13.40;;;18.40;99.90;;;;;;6158074;23;20443;-72
2023/06/23 04:20:38;;;;;;;13.83;12.70;;;18.50;99.90;;;;;;6162045;23;20442;-89
2023/06/23 04:23:06;;;;;;;14.40;13.10;;;18.50;99.90;;;;;;6157544;23;20454;-83
2023/06/23 04:25:33;;;;;;;13.90;12.90;;;18.70;99.90;;;;;;6160280;23;20467;-86
2023/06/23 04:28:05;;;;;;;13.27;12.17;;;18.70;99.90;;;;;;6168193;23;20526;-87
2023/06/23 04:30:35;;;;;;;14.80;13.70;;;18.80;99.90;;;;;;6158610;23;20855;-87
2023/06/23 04:33:02;;;;;;;13.00;11.90;;;18.80;99.90;;;;;;6171413;23;20457;-89
2023/06/23 04:35:29;;;;;;;14.57;13.40;;;18.90;99.90;;;;;;6177071;23;20450;-87
2023/06/23 04:38:02;;;;;;;16.27;14.97;;;19.00;99.90;;;;;;6166115;23;20993;-87
2023/06/23 04:40:35;;;;;;;15.97;14.63;;;19.00;99.90;;;;;;6164115;23;20515;-88
2023/06/23 04:43:12;;;;;;;17.67;16.07;;;19.10;99.90;;;;;;6164154;23;20464;-81
2023/06/23 04:45:42;;;;;;;18.03;16.63;;;19.00;99.90;;;;;;6161194;23;20970;-81
2023/06/23 04:48:12;;;;;;;18.10;16.70;;;19.00;99.90;;;;;;6157212;23;20448;-78
2023/06/23 04:50:42;;;;;;;15.87;14.63;;;19.10;99.90;;;;;;6160585;23;20480;-82
2023/06/23 04:53:17;;;;;;;14.63;13.47;;;19.10;99.90;;;;;;6159076;23;20963;-85
2023/06/23 04:55:50;;;;;;;19.13;17.60;;;19.10;99.90;;;;;;6151694;23;20431;-89
2023/06/23 04:58:21;;;;;;;17.33;15.83;;;19.20;99.90;;;;;;6153350;23;20436;-93
2023/06/23 05:00:51;;;;;;;19.70;18.23;;;19.10;99.90;;;;;;6148503;23;20432;-87
2023/06/23 05:03:19;;;;;;;20.50;18.90;;;19.20;99.90;;;;;;6148032;23;20970;-88
2023/06/23 05:05:50;;;;;;;20.90;19.23;;;19.10;99.90;;;;;;6152089;23;20463;-95
2023/06/23 05:08:19;;;;;;;20.10;18.60;;;19.00;99.90;;;;;;6155237;23;20476;-94
2023/06/23 05:10:47;;;;;;;22.57;20.83;;;19.00;99.90;;;;;;6152867;23;20698;-95
2023/06/23 05:13:18;;;;;;;24.37;22.43;;;19.00;99.90;;;;;;6155579;23;20451;-94
2023/06/23 05:15:47;;;;;;;25.10;23.13;;;19.00;99.90;;;;;;6151220;23;20463;-84
2023/06/23 05:18:18;;;;;;;21.87;20.13;;;19.00;99.90;;;;;;6160352;23;20439;-91
2023/06/23 05:20:47;;;;;;;26.20;23.87;;;19.00;99.90;;;;;;6177962;23;20439;-95
2023/06/23 05:23:18;;;;;;;24.90;22.80;;;19.00;99.90;;;;;;6163507;23;20480;-86
2023/06/23 05:25:46;;;;;;;25.70;23.70;;;19.00;99.90;;;;;;6153146;23;20936;-76
2023/06/23 05:28:16;;;;;;;27.27;25.03;;;19.00;99.90;;;;;;6141801;23;20438;-78
2023/06/23 05:30:43;;;;;;;27.03;24.80;;;19.00;99.90;;;;;;6152720;23;20446;-85
2023/06/23 05:33:13;;;;;;;25.03;23.03;;;19.00;99.90;;;;;;6152010;23;20830;-85
2023/06/23 05:35:42;;;;;;;27.03;24.77;;;19.10;99.90;;;;;;6145817;23;20443;-84
2023/06/23 05:38:11;;;;;;;25.60;23.50;;;19.10;99.90;;;;;;6154295;23;20912;-84
2023/06/23 05:40:39;;;;;;;28.80;26.00;;;19.20;99.90;;;;;;6158028;23;21781;-84
2023/06/23 05:43:06;;;;;;;28.33;25.93;;;19.20;99.90;;;;;;6158603;23;20460;-84
2023/06/23 05:45:33;;;;;;;30.57;27.87;;;19.20;99.90;;;;;;6153272;23;20470;-85
2023/06/23 05:48:10;;;;;;;29.57;27.17;;;19.20;99.90;;;;;;6156905;23;20432;-85
2023/06/23 05:50:40;;;;;;;30.67;28.17;;;19.20;99.90;;;;;;6162402;23;20848;-85
2023/06/23 05:53:11;;;;;;;29.67;27.17;;;19.20;99.90;;;;;;6161233;23;20845;-85
2023/06/23 05:55:43;;;;;;;29.33;26.73;;;19.30;99.90;;;;;;6166101;23;20515;-85
2023/06/23 05:58:13;;;;;;;28.80;26.53;;;19.10;99.90;;;;;;6168686;23;20832;-85
2023/06/23 06:00:45;;;;;;;29.40;26.90;;;19.10;99.90;;;;;;6165952;23;20923;-84
2023/06/23 06:03:18;;;;;;;30.73;28.00;;;19.10;99.90;;;;;;6164625;23;20478;-87
2023/06/23 06:05:53;;;;;;;28.00;25.67;;;19.10;99.90;;;;;;6167676;23;20467;-83
2023/06/23 06:08:22;;;;;;;29.13;26.63;;;19.20;99.90;;;;;;6155518;23;21369;-84
2023/06/23 06:10:51;;;;;;;29.43;26.93;;;19.20;99.90;;;;;;6122497;23;20439;-84
2023/06/23 06:13:20;;;;;;;29.87;27.27;;;19.30;99.90;;;;;;6153095;23;20497;-84
2023/06/23 06:15:51;;;;;;;29.83;27.13;;;19.40;99.90;;;;;;6151086;23;21641;-83
2023/06/23 06:18:21;;;;;;;26.50;24.20;;;19.50;99.90;;;;;;6155479;23;20432;-84
2023/06/23 06:20:53;;;;;;;29.17;26.80;;;19.50;99.90;;;;;;6155215;23;20447;-84
2023/06/23 06:23:22;;;;;;;27.00;24.77;;;19.50;99.90;;;;;;6156344;23;20791;-84
2023/06/23 06:25:52;;;;;;;29.50;27.00;;;19.60;99.90;;;;;;6165906;23;20474;-83
2023/06/23 06:28:20;;;;;;;31.23;28.53;;;19.60;99.90;;;;;;6149132;23;20433;-82
2023/06/23 06:30:50;;;;;;;29.90;27.30;;;19.60;99.90;;;;;;6156415;23;20506;-84
2023/06/23 06:33:19;;;;;;;30.27;27.57;;;19.50;99.90;;;;;;6146378;23;20456;-83
2023/06/23 06:35:51;;;;;;;28.87;26.43;;;19.50;99.90;;;;;;6158428;23;20436;-84
2023/06/23 06:38:21;;;;;;;32.23;29.13;;;19.50;99.90;;;;;;6159389;23;20441;-83
2023/06/23 06:40:52;;;;;;;31.93;28.93;;;19.40;99.90;;;;;;6161673;23;20996;-83
2023/06/23 06:43:20;;;;;;;33.13;30.33;;;19.40;99.90;;;;;;6158037;23;20599;-83
2023/06/23 06:45:48;;;;;;;29.60;26.97;;;19.20;99.90;;;;;;6143276;23;22423;-84
2023/06/23 06:48:17;;;;;;;30.77;28.10;;;19.30;99.90;;;;;;6156262;23;20428;-82
2023/06/23 06:50:45;;;;;;;30.17;27.60;;;19.40;99.90;;;;;;6161213;23;20981;-84
2023/06/23 06:53:15;;;;;;;29.23;26.80;;;19.60;99.90;;;;;;6158101;23;20484;-85
2023/06/23 06:55:42;;;;;;;30.10;27.30;;;19.80;99.90;;;;;;6164269;23;20824;-88
2023/06/23 06:58:10;;;;;;;29.20;25.20;;;19.90;99.90;;;;;;6164023;23;20433;-86
2023/06/23 07:00:37;;;;;;;31.27;28.47;;;19.90;99.90;;;;;;6162699;23;21005;-84
2023/06/23 07:03:05;;;;;;;27.67;25.27;;;19.90;99.90;;;;;;6162988;23;20436;-82
2023/06/23 07:05:34;;;;;;;27.03;24.73;;;19.90;99.90;;;;;;6166098;23;20467;-84
2023/06/23 07:08:01;;;;;;;29.23;26.80;;;20.10;99.90;;;;;;6160100;23;20541;-72
2023/06/23 07:10:29;;;;;;;25.37;23.27;;;20.20;99.90;;;;;;6157881;23;20439;-72
2023/06/23 07:12:56;;;;;;;26.43;23.90;;;20.20;99.90;;;;;;6158935;23;20463;-80
2023/06/23 07:15:23;;;;;;;25.60;23.23;;;20.40;99.90;;;;;;6163428;23;20632;-79
2023/06/23 07:17:50;;;;;;;25.20;23.07;;;20.50;99.90;;;;;;6152152;23;20513;-79
2023/06/23 07:20:18;;;;;;;26.43;24.20;;;20.40;99.90;;;;;;6150795;23;20437;-79
2023/06/23 07:22:45;;;;;;;23.00;21.10;;;20.40;99.90;;;;;;6159300;23;20452;-79
2023/06/23 07:25:13;;;;;;;23.77;21.40;;;20.30;99.90;;;;;;6160522;23;20846;-79
2023/06/23 07:27:41;;;;;;;22.37;20.53;;;20.20;99.90;;;;;;6161458;23;20519;-79
2023/06/23 07:30:09;;;;;;;25.20;22.97;;;20.30;99.90;;;;;;6159342;23;20433;-79
2023/06/23 07:32:37;;;;;;;22.30;20.40;;;20.30;99.90;;;;;;6161557;23;20510;-79
2023/06/23 07:35:06;;;;;;;20.80;19.10;;;20.30;99.90;;;;;;6161406;23;20515;-80
2023/06/23 07:37:33;;;;;;;21.60;19.80;;;20.30;99.90;;;;;;6156805;23;21076;-79
2023/06/23 07:39:59;;;;;;;23.87;21.97;;;20.20;99.90;;;;;;6147090;23;20467;-79
2023/06/23 07:42:27;;;;;;;20.93;19.13;;;20.10;99.90;;;;;;6154572;23;20493;-79
2023/06/23 07:44:55;;;;;;;22.13;20.27;;;20.00;99.90;;;;;;6155918;23;20522;-72
2023/06/23 07:47:22;;;;;;;22.83;20.90;;;20.00;99.90;;;;;;6155564;23;21119;-79
2023/06/23 07:49:49;;;;;;;23.87;21.70;;;20.00;99.90;;;;;;6148827;23;20973;-79
2023/06/23 07:52:16;;;;;;;22.63;20.63;;;20.00;99.90;;;;;;6148377;23;20448;-79
2023/06/23 07:54:43;;;;;;;21.50;19.67;;;19.90;99.90;;;;;;6155005;23;20518;-80
2023/06/23 07:57:12;;;;;;;21.03;19.20;;;19.90;99.90;;;;;;6149944;23;20449;-79
2023/06/23 07:59:40;;;;;;;20.90;19.03;;;19.90;99.90;;;;;;6147089;23;20434;-79
2023/06/23 08:02:08;;;;;;;20.97;19.37;;;20.00;99.90;;;;;;6147551;23;20488;-79
2023/06/23 08:04:36;;;;;;;20.47;18.77;;;20.10;99.90;;;;;;6158487;23;20671;-79
2023/06/23 08:07:03;;;;;;;19.67;18.07;;;20.20;99.90;;;;;;6158421;23;20550;-80
2023/06/23 08:09:30;;;;;;;19.27;17.77;;;20.30;99.90;;;;;;6146567;23;20455;-79
2023/06/23 08:11:57;;;;;;;19.63;18.03;;;20.30;99.90;;;;;;6142005;23;20851;-79
2023/06/23 08:14:24;;;;;;;20.37;18.77;;;20.20;99.90;;;;;;6157142;23;21061;-79
2023/06/23 08:16:52;;;;;;;18.90;17.40;;;20.20;99.90;;;;;;6158169;23;20538;-79
2023/06/23 08:19:22;;;;;;;20.03;18.43;;;20.30;99.90;;;;;;6157970;23;20985;-79
2023/06/23 08:21:49;;;;;;;19.77;18.10;;;20.30;99.90;;;;;;6155933;23;20792;-79
2023/06/23 08:24:16;;;;;;;19.80;18.30;;;20.40;99.90;;;;;;6158703;23;20462;-79
2023/06/23 08:26:44;;;;;;;18.00;16.60;;;20.40;99.90;;;;;;6154472;23;20500;-79
2023/06/23 08:29:11;;;;;;;18.30;16.90;;;20.50;99.90;;;;;;6152389;23;20459;-79
2023/06/23 08:31:38;;;;;;;20.03;18.40;;;20.80;99.90;;;;;;6159000;23;20508;-79
2023/06/23 08:34:06;;;;;;;19.13;17.63;;;21.00;99.90;;;;;;6153320;23;20470;-79
2023/06/23 08:36:34;;;;;;;17.83;16.47;;;21.30;99.90;;;;;;6156112;23;20757;-79
2023/06/23 08:39:01;;;;;;;18.57;17.10;;;21.40;99.90;;;;;;6147454;23;20523;-79
2023/06/23 08:41:31;;;;;;;16.37;15.00;;;21.50;99.90;;;;;;6150068;23;20463;-79
2023/06/23 08:44:01;;;;;;;16.00;14.80;;;21.60;99.90;;;;;;6156786;23;20788;-79
2023/06/23 08:46:32;;;;;;;16.30;14.90;;;21.80;99.90;;;;;;6155689;23;20896;-79
2023/06/23 08:49:05;;;;;;;13.60;12.50;;;22.10;99.90;;;;;;6155076;23;20443;-79
2023/06/23 08:51:35;;;;;;;12.47;11.47;;;22.40;99.90;;;;;;6142013;23;20546;-79
2023/06/23 08:54:02;;;;;;;13.13;12.07;;;22.70;99.90;;;;;;6137003;23;20466;-79
2023/06/23 08:56:29;;;;;;;13.37;12.17;;;22.80;99.90;;;;;;6138780;23;20967;-79
2023/06/23 08:58:56;;;;;;;11.60;10.60;;;23.00;99.90;;;;;;6143516;23;20516;-79
2023/06/23 09:01:23;;;;;;;12.47;11.37;;;23.40;99.90;;;;;;6154211;23;20992;-79
2023/06/23 09:03:51;;;;;;;11.80;10.90;;;23.60;99.90;;;;;;6157263;23;20908;-79
2023/06/23 09:06:18;;;;;;;11.93;11.03;;;23.70;99.90;;;;;;6155130;23;20498;-79
2023/06/23 09:08:47;;;;;;;12.70;11.80;;;23.80;99.90;;;;;;6156641;23;20486;-79
2023/06/23 09:11:14;;;;;;;14.03;12.93;;;24.00;99.90;;;;;;6155885;23;20797;-79
2023/06/23 09:13:45;;;;;;;15.40;14.20;;;24.10;99.90;;;;;;6160277;23;20632;-79
2023/06/23 09:16:12;;;;;;;14.23;13.07;;;24.10;99.90;;;;;;6156132;23;20447;-79
2023/06/23 09:18:41;;;;;;;12.40;11.50;;;24.20;99.90;;;;;;6160884;23;21185;-79
2023/06/23 09:21:10;;;;;;;15.33;14.10;;;24.30;99.90;;;;;;6157478;23;21937;-79
2023/06/23 09:23:37;;;;;;;15.47;14.23;;;24.60;99.90;;;;;;6158243;23;20939;-79
2023/06/23 09:26:06;;;;;;;12.93;11.93;;;24.70;99.90;;;;;;6155008;23;20433;-79
2023/06/23 09:28:36;;;;;;;12.67;11.77;;;25.00;99.90;;;;;;6154083;23;20473;-79
2023/06/23 09:31:09;;;;;;;14.00;12.90;;;25.10;99.90;;;;;;6146833;23;20601;-79
2023/06/23 09:33:46;;;;;;;14.27;13.07;;;25.20;99.90;;;;;;6164214;23;20439;-79
2023/06/23 09:36:13;;;;;;;13.00;11.90;;;24.70;99.90;;;;;;6168426;23;20457;-79
2023/06/23 09:38:40;;;;;;;13.67;12.67;;;24.60;99.90;;;;;;6161150;23;20474;-79
2023/06/23 09:41:13;;;;;;;12.27;11.20;;;24.30;99.90;;;;;;6164297;23;20484;-80
2023/06/23 09:43:41;;;;;;;11.83;11.03;;;24.10;99.90;;;;;;6167906;23;20438;-79
2023/06/23 09:46:09;;;;;;;10.07;9.33;;;24.20;99.90;;;;;;6167929;23;20804;-80
2023/06/23 09:48:37;;;;;;;9.77;8.97;;;24.20;99.90;;;;;;6169010;23;20491;-80
2023/06/23 09:51:05;;;;;;;9.07;8.27;;;24.50;99.90;;;;;;6168104;23;20500;-80
2023/06/23 09:53:33;;;;;;;8.57;7.97;;;24.70;99.90;;;;;;6165172;23;20830;-80
2023/06/23 09:56:03;;;;;;;9.30;8.60;;;24.80;99.90;;;;;;6151851;23;20968;-80
2023/06/23 09:58:36;;;;;;;9.03;8.43;;;24.70;99.90;;;;;;6149933;23;20556;-80
2023/06/23 10:01:04;;;;;;;9.30;8.33;;;24.60;99.90;;;;;;6149888;23;20446;-80
2023/06/23 10:03:32;;;;;;;8.20;7.60;;;24.50;99.90;;;;;;6156749;23;20441;-80
2023/06/23 10:06:00;;;;;;;6.60;6.10;;;24.70;99.90;;;;;;6158361;23;21136;-80
2023/06/23 10:08:27;;;;;;;7.67;7.07;;;25.00;99.90;;;;;;6154504;23;20463;-80
2023/06/23 10:10:57;;;;;;;7.80;7.13;;;25.10;99.90;;;;;;6155620;23;20481;-80
2023/06/23 10:13:24;;;;;;;8.53;7.93;;;25.00;99.90;;;;;;6165829;23;20462;-79
2023/06/23 10:15:53;;;;;;;9.87;9.10;;;24.80;99.90;;;;;;6163166;23;20426;-80
2023/06/23 10:18:20;;;;;;;8.13;7.53;;;24.50;99.90;;;;;;6164470;23;20439;-80
2023/06/23 10:20:48;;;;;;;9.67;8.90;;;24.30;99.90;;;;;;6166061;23;20495;-79
2023/06/23 10:23:15;;;;;;;9.43;8.60;;;24.10;99.90;;;;;;6162726;23;20934;-80
2023/06/23 10:25:45;;;;;;;9.97;9.27;;;24.30;99.90;;;;;;6162997;23;21103;-80
2023/06/23 10:28:13;;;;;;;9.33;8.53;;;24.20;99.90;;;;;;6158313;23;20468;-80
2023/06/23 10:30:42;;;;;;;8.50;7.80;;;24.20;99.90;;;;;;6168853;23;20580;-80
2023/06/23 10:33:19;;;;;;;7.30;6.60;;;24.60;99.90;;;;;;6164340;23;20518;-80
2023/06/23 10:35:48;;;;;;;6.80;6.30;;;25.40;99.90;;;;;;6159797;23;20502;-80
2023/06/23 10:38:21;;;;;;;6.50;6.10;;;25.70;99.90;;;;;;6152728;23;20855;-80
2023/06/23 10:40:51;;;;;;;8.90;8.20;;;25.70;99.90;;;;;;6167536;23;20448;-80
2023/06/23 10:43:20;;;;;;;9.37;8.57;;;25.30;99.90;;;;;;6161858;23;20438;-80
2023/06/23 10:45:48;;;;;;;11.13;10.23;;;24.80;99.90;;;;;;6171255;23;20543;-80
2023/06/23 10:48:18;;;;;;;9.73;8.93;;;24.40;99.90;;;;;;6178118;23;20528;-79
2023/06/23 10:50:47;;;;;;;8.60;8.00;;;23.90;99.90;;;;;;6161277;23;21137;-80
2023/06/23 10:53:19;;;;;;;9.10;8.40;;;23.80;99.90;;;;;;6152136;23;21214;-80
2023/06/23 10:55:48;;;;;;;9.50;8.70;;;24.40;99.90;;;;;;6154157;23;20443;-80
2023/06/23 10:58:17;;;;;;;8.27;7.67;;;24.90;99.90;;;;;;6157705;23;20844;-80
2023/06/23 11:01:00;;;;;;;7.40;6.90;;;25.50;99.90;;;;;;6157756;23;21049;-80
2023/06/23 11:03:33;;;;;;;6.87;6.37;;;26.20;99.90;;;;;;6158380;23;20527;-80
2023/06/23 11:06:03;;;;;;;7.67;6.97;;;26.80;99.90;;;;;;6156092;23;20858;-80
2023/06/23 11:08:33;;;;;;;8.20;7.50;;;27.20;99.90;;;;;;6157940;23;20984;-80
2023/06/23 11:11:05;;;;;;;8.53;7.93;;;27.20;99.90;;;;;;6152357;23;21387;-79
2023/06/23 11:13:42;;;;;;;7.97;7.33;;;26.20;99.90;;;;;;6156948;23;20534;-79
2023/06/23 11:16:16;;;;;;;9.60;8.70;;;25.70;99.90;;;;;;6157384;23;20439;-80
2023/06/23 11:18:52;;;;;;;8.60;8.00;;;25.80;99.90;;;;;;6158847;23;20443;-80
2023/06/23 11:21:20;;;;;;;6.43;5.93;;;26.00;99.90;;;;;;6155524;23;20458;-80
2023/06/23 11:24:16;;;;;;;5.87;5.37;;;26.40;99.90;;;;;;6156291;23;21379;-80
2023/06/23 11:26:44;;;;;;;6.67;6.07;;;26.80;99.90;;;;;;6158557;23;20985;-80
2023/06/23 11:29:13;;;;;;;5.50;5.17;;;27.40;99.90;;;;;;6147820;23;20536;-80
2023/06/23 11:32:06;;;;;;;6.30;5.80;;;28.00;99.90;;;;;;6151558;23;20456;-80
2023/06/23 11:34:56;;;;;;;7.07;6.47;;;28.30;98.10;;;;;;6157090;23;20439;-81
2023/06/23 11:37:26;;;;;;;7.70;7.10;;;27.90;98.80;;;;;;6146546;23;20432;-81
2023/06/23 11:39:55;;;;;;;8.00;6.37;;;27.60;99.20;;;;;;6157852;23;20916;-82
2023/06/23 11:42:22;;;;;;;5.73;5.30;;;27.50;99.90;;;;;;6156570;23;20542;-81
2023/06/23 11:44:54;;;;;;;6.40;5.83;;;27.90;99.50;;;;;;6148789;23;20477;-82
2023/06/23 11:47:24;;;;;;;6.33;5.83;;;28.10;98.50;;;;;;6157950;23;20495;-82
2023/06/23 11:49:53;;;;;;;5.73;5.23;;;27.70;98.50;;;;;;6157202;23;20964;-82
2023/06/23 11:52:20;;;;;;;5.63;5.13;;;27.50;98.00;;;;;;6158058;23;20423;-81
2023/06/23 11:54:51;;;;;;;5.23;4.93;;;27.10;98.20;;;;;;6155972;23;20437;-82
2023/06/23 11:57:19;;;;;;;5.43;4.97;;;27.10;98.10;;;;;;6158671;23;20785;-82
2023/06/23 11:59:47;;;;;;;5.43;5.03;;;27.40;97.20;;;;;;6156609;23;20656;-81
2023/06/23 12:02:14;;;;;;;6.87;6.27;;;27.50;97.40;;;;;;6150539;23;20446;-81
2023/06/23 12:04:42;;;;;;;7.50;6.50;;;27.30;98.40;;;;;;6152253;23;20428;-81
2023/06/23 12:07:12;;;;;;;6.30;5.70;;;27.00;99.60;;;;;;6156915;23;20467;-82
2023/06/23 12:09:40;;;;;;;6.27;5.80;;;26.90;99.70;;;;;;6156507;23;20432;-81
2023/06/23 12:12:09;;;;;;;5.17;4.80;;;27.20;97.70;;;;;;6155982;23;20436;-82
2023/06/23 12:14:37;;;;;;;5.20;4.80;;;27.50;97.50;;;;;;6147894;23;20449;-89
2023/06/23 12:17:08;;;;;;;5.40;4.90;;;28.10;96.70;;;;;;6160361;23;20499;-84
2023/06/23 12:19:37;;;;;;;4.90;4.43;;;28.40;95.80;;;;;;6157617;23;20451;-81
2023/06/23 12:22:04;;;;;;;5.00;4.60;;;28.90;94.90;;;;;;6156351;23;20443;-81
2023/06/23 12:24:33;;;;;;;4.10;3.80;;;29.60;93.90;;;;;;6154715;23;20543;-81
2023/06/23 12:27:00;;;;;;;4.20;3.90;;;30.10;91.50;;;;;;6152054;23;20433;-82
2023/06/23 12:29:33;;;;;;;4.30;4.03;;;30.60;90.20;;;;;;6152097;23;21014;-81
2023/06/23 12:32:02;;;;;;;5.30;4.80;;;30.70;90.80;;;;;;6150658;23;20432;-81
2023/06/23 12:34:34;;;;;;;5.03;4.63;;;30.70;90.30;;;;;;6149054;23;21000;-81
2023/06/23 12:37:06;;;;;;;5.00;4.60;;;30.50;90.90;;;;;;6150128;23;20459;-81
2023/06/23 12:39:35;;;;;;;5.33;4.60;;;30.40;90.70;;;;;;6150337;23;20484;-81
2023/06/23 12:42:02;;;;;;;4.50;4.20;;;29.80;91.30;;;;;;6141938;23;20432;-81
2023/06/23 12:44:32;;;;;;;5.27;4.53;;;29.20;91.00;;;;;;6152416;23;20485;-81
2023/06/23 12:47:01;;;;;;;4.47;4.07;;;28.60;90.70;;;;;;6154643;23;20443;-81
2023/06/23 12:49:31;;;;;;;4.40;4.10;;;28.00;91.80;;;;;;6153942;23;20437;-81